createdAt,value
2018-02-15T00:00:35.253Z,68.01
2018-02-15T00:03:58.616Z,68.29
2018-02-15T00:07:22.002Z,69.25
2018-02-15T00:10:45.303Z,69.26
2018-02-15T00:14:08.608Z,69.44
2018-02-15T00:17:32.694Z,69.64
2018-02-15T00:20:56.755Z,69.16
2018-02-15T00:24:20.135Z,68.88
2018-02-15T00:27:43.460Z,67.66
2018-02-15T00:31:07.519Z,67.48
2018-02-15T00:34:30.866Z,67.50
2018-02-15T00:37:54.997Z,67.66
2018-02-15T00:41:22.387Z,67.86
2018-02-15T00:44:45.734Z,68.11
2018-02-15T00:48:09.086Z,68.29
2018-02-15T00:51:32.415Z,68.45
2018-02-15T00:54:56.741Z,67.73
2018-02-15T00:58:20.136Z,67.64
2018-02-15T01:01:43.505Z,67.37
2018-02-15T01:05:06.842Z,67.47
2018-02-15T01:08:30.931Z,67.59
2018-02-15T01:11:54.250Z,67.30
2018-02-15T01:15:17.666Z,67.29
2018-02-15T01:18:40.951Z,66.91
2018-02-15T01:22:04.342Z,66.81
2018-02-15T01:25:27.619Z,66.64
2018-02-15T01:28:51.707Z,66.50
2018-02-15T01:32:15.833Z,65.79
2018-02-15T01:35:39.100Z,65.53
2018-02-15T01:39:02.442Z,65.30
2018-02-15T01:42:26.490Z,64.46
2018-02-15T01:45:49.801Z,63.79
2018-02-15T01:49:13.094Z,64.59
2018-02-15T01:52:36.481Z,65.20
2018-02-15T01:56:00.595Z,65.40
2018-02-15T01:59:23.975Z,64.90
2018-02-15T02:02:47.254Z,65.26
2018-02-15T02:06:11.309Z,66.04
2018-02-15T02:09:34.609Z,65.41
2018-02-15T02:12:58.652Z,65.14
2018-02-15T02:16:22.706Z,64.80
2018-02-15T02:19:46.040Z,64.43
2018-02-15T02:23:09.308Z,64.19
2018-02-15T02:26:33.442Z,64.73
2018-02-15T02:29:56.699Z,63.77
2018-02-15T02:33:20.080Z,63.44
2018-02-15T02:36:43.456Z,63.34
2018-02-15T02:40:06.722Z,63.54
2018-02-15T02:43:30.834Z,63.12
2018-02-15T02:46:54.113Z,63.24
2018-02-15T02:50:17.382Z,63.24
2018-02-15T02:53:40.771Z,63.05
2018-02-15T02:57:04.815Z,63.23
2018-02-15T03:00:28.937Z,63.27
2018-02-15T03:03:52.258Z,62.93
2018-02-15T03:07:15.634Z,63.11
2018-02-15T03:10:38.898Z,61.85
2018-02-15T03:14:02.956Z,61.75
2018-02-15T03:17:26.251Z,61.93
2018-02-15T03:20:49.569Z,61.88
2018-02-15T03:24:12.841Z,62.75
2018-02-15T03:27:36.971Z,62.10
2018-02-15T03:31:00.246Z,63.17
2018-02-15T03:34:23.518Z,62.80
2018-02-15T03:37:47.579Z,62.48
2018-02-15T03:41:10.872Z,62.56
2018-02-15T03:44:34.912Z,62.29
2018-02-15T03:47:58.974Z,61.78
2018-02-15T03:51:22.246Z,62.54
2018-02-15T03:54:45.528Z,61.96
2018-02-15T03:58:08.892Z,61.92
2018-02-15T04:01:32.263Z,62.00
2018-02-15T04:04:55.587Z,62.36
2018-02-15T04:08:18.852Z,61.88
2018-02-15T04:11:42.903Z,62.07
2018-02-15T04:15:06.955Z,63.79
2018-02-15T04:18:30.269Z,64.11
2018-02-15T04:21:53.524Z,64.26
2018-02-15T04:25:17.626Z,64.72
2018-02-15T04:28:40.929Z,64.48
2018-02-15T04:32:05.031Z,64.14
2018-02-15T04:35:28.373Z,63.29
2018-02-15T04:38:51.643Z,62.98
2018-02-15T04:42:14.957Z,63.28
2018-02-15T04:45:38.241Z,62.68
2018-02-15T04:49:02.313Z,62.75
2018-02-15T04:52:25.607Z,62.87
2018-02-15T04:55:49.637Z,62.30
2018-02-15T04:59:13.688Z,61.66
2018-02-15T05:02:37.078Z,62.67
2018-02-15T05:06:01.128Z,62.50
2018-02-15T05:09:25.180Z,63.23
2018-02-15T05:12:48.451Z,62.17
2018-02-15T05:16:11.719Z,62.45
2018-02-15T05:19:35.015Z,62.91
2018-02-15T05:22:59.139Z,63.30
2018-02-15T05:26:22.432Z,62.37
2018-02-15T05:29:45.711Z,62.95
2018-02-15T05:33:09.078Z,63.58
2018-02-15T05:36:32.414Z,63.82
2018-02-15T05:39:55.688Z,63.98
2018-02-15T05:43:19.751Z,64.35
2018-02-15T05:46:43.039Z,65.48
2018-02-15T05:50:06.409Z,65.27
2018-02-15T05:53:29.779Z,65.03
2018-02-15T05:56:53.057Z,65.63
2018-02-15T06:00:17.145Z,65.62
2018-02-15T06:03:41.201Z,65.51
2018-02-15T06:07:04.495Z,63.86
2018-02-15T06:10:28.623Z,64.16
2018-02-15T06:13:51.903Z,65.45
2018-02-15T06:17:15.978Z,64.00
2018-02-15T06:20:39.246Z,64.19
2018-02-15T06:24:02.552Z,63.56
2018-02-15T06:27:25.885Z,64.16
2018-02-15T06:30:49.160Z,63.29
2018-02-15T06:34:12.472Z,63.38
2018-02-15T06:37:35.756Z,62.68
2018-02-15T06:40:59.812Z,63.59
2018-02-15T06:44:23.103Z,63.16
2018-02-15T06:47:47.188Z,63.75
2018-02-15T06:51:11.246Z,63.02
2018-02-15T06:54:35.361Z,61.84
2018-02-15T06:57:58.731Z,62.64
2018-02-15T07:01:22.021Z,63.10
2018-02-15T07:04:45.295Z,63.67
2018-02-15T07:08:08.925Z,64.49
2018-02-15T07:11:32.332Z,64.43
2018-02-15T07:14:56.496Z,66.02
2018-02-15T07:18:19.911Z,68.83
2018-02-15T07:21:43.332Z,69.20
2018-02-15T07:33:06.530Z,72.52
2018-02-15T07:36:31.339Z,72.48
2018-02-15T07:39:54.746Z,73.16
2018-02-15T07:43:18.832Z,73.63
2018-02-15T07:46:42.994Z,73.61
2018-02-15T07:50:06.334Z,75.33
2018-02-15T07:53:29.734Z,75.71
2018-02-15T07:56:53.934Z,75.57
2018-02-15T08:00:19.446Z,75.17
2018-02-15T08:03:44.574Z,74.68
2018-02-15T08:15:18.057Z,75.44
2018-02-15T08:18:43.618Z,75.27
2018-02-15T08:22:10.678Z,75.59
2018-02-15T08:25:34.793Z,74.77
2018-02-15T08:28:58.241Z,74.46
2018-02-15T08:32:22.439Z,74.83
2018-02-15T08:35:45.831Z,74.92
2018-02-15T08:39:09.345Z,74.17
2018-02-15T08:42:33.068Z,74.87
2018-02-15T08:45:56.390Z,74.55
2018-02-15T08:49:19.845Z,75.09
2018-02-15T08:52:43.532Z,74.73
2018-02-15T08:56:06.996Z,74.68
2018-02-15T08:59:31.210Z,74.77
2018-02-15T09:02:54.535Z,75.39
2018-02-15T09:06:17.860Z,75.00
2018-02-15T09:09:42.030Z,75.57
2018-02-15T09:13:06.223Z,74.78
2018-02-15T09:16:29.525Z,76.70
2018-02-15T09:19:55.187Z,75.00
2018-02-15T09:23:18.533Z,74.56
2018-02-15T09:26:44.098Z,74.88
2018-02-15T09:30:08.187Z,76.80
2018-02-15T09:33:32.295Z,77.39
2018-02-15T09:37:00.156Z,78.17
2018-02-15T09:40:24.234Z,76.90
2018-02-15T09:43:48.326Z,77.15
2018-02-15T09:47:12.411Z,77.08
2018-02-15T09:50:36.594Z,76.79
2018-02-15T09:54:00.661Z,75.81
2018-02-15T09:57:23.977Z,75.00
2018-02-15T10:00:47.268Z,76.51
2018-02-15T10:04:12.316Z,75.25
2018-02-15T10:07:36.359Z,75.50
2018-02-15T10:11:00.580Z,75.45
2018-02-15T10:14:23.903Z,76.69
2018-02-15T10:17:48.254Z,75.90
2018-02-15T10:21:11.624Z,74.91
2018-02-15T10:24:34.945Z,74.93
2018-02-15T10:27:59.028Z,73.88
2018-02-15T10:31:23.268Z,73.60
2018-02-15T10:34:46.529Z,72.41
2018-02-15T10:38:09.863Z,73.96
2018-02-15T10:41:33.916Z,73.74
2018-02-15T10:44:57.206Z,75.21
2018-02-15T10:48:20.536Z,74.04
2018-02-15T10:51:44.668Z,74.14
2018-02-15T10:55:08.036Z,74.07
2018-02-15T10:58:32.516Z,74.80
2018-02-15T11:02:01.313Z,74.50
2018-02-15T11:05:29.523Z,75.05
2018-02-15T11:08:53.661Z,74.56
2018-02-15T11:12:17.932Z,75.38
2018-02-15T11:15:41.290Z,73.88
2018-02-15T11:19:04.622Z,75.75
2018-02-15T11:22:28.804Z,72.80
2018-02-15T11:25:52.206Z,75.69
2018-02-15T11:29:15.602Z,73.43
2018-02-15T11:32:38.997Z,73.64
2018-02-15T11:36:02.316Z,74.30
2018-02-15T11:39:26.349Z,73.96
2018-02-15T11:42:50.400Z,73.42
2018-02-15T11:46:13.680Z,73.42
2018-02-15T11:49:37.015Z,74.15
2018-02-15T11:53:00.294Z,75.30
2018-02-15T11:56:24.325Z,73.34
2018-02-15T11:59:48.448Z,74.72
2018-02-15T12:03:11.735Z,73.16
2018-02-15T12:06:35.799Z,74.85
2018-02-15T12:09:59.105Z,74.97
2018-02-15T12:13:22.400Z,73.83
2018-02-15T12:16:45.726Z,73.82
2018-02-15T12:20:09.799Z,73.24
2018-02-15T12:23:33.088Z,73.89
2018-02-15T12:26:57.155Z,73.86
2018-02-15T12:30:20.435Z,75.37
2018-02-15T12:33:44.477Z,76.04
2018-02-15T12:37:08.529Z,75.65
2018-02-15T12:40:31.842Z,75.75
2018-02-15T12:43:55.108Z,74.77
2018-02-15T12:47:18.370Z,75.73
2018-02-15T12:50:42.546Z,74.78
2018-02-15T12:54:06.047Z,76.43
2018-02-15T12:57:29.318Z,76.78
2018-02-15T13:00:52.601Z,74.54
2018-02-15T13:04:15.927Z,75.62
2018-02-15T13:07:40.059Z,74.33
2018-02-15T13:11:03.376Z,74.95
2018-02-15T13:14:26.671Z,75.49
2018-02-15T13:17:50.020Z,75.23
2018-02-15T13:21:13.306Z,74.51
2018-02-15T13:24:36.610Z,74.43
2018-02-15T13:28:18.558Z,75.01
2018-02-15T13:31:41.830Z,74.71
2018-02-15T13:35:05.243Z,74.61
2018-02-15T13:38:29.333Z,76.06
2018-02-15T13:41:52.629Z,75.16
2018-02-15T13:45:15.962Z,75.98
2018-02-15T13:48:39.251Z,76.14
2018-02-15T13:52:03.291Z,76.06
2018-02-15T13:55:27.416Z,76.61
2018-02-15T13:58:50.685Z,77.77
2018-02-15T14:02:14.711Z,76.59
2018-02-15T14:05:38.037Z,77.34
2018-02-15T14:09:01.330Z,76.09
2018-02-15T14:12:25.444Z,75.23
2018-02-15T14:15:48.720Z,75.10
2018-02-15T14:19:12.840Z,75.72
2018-02-15T14:22:36.097Z,76.28
2018-02-15T14:25:59.359Z,75.77
2018-02-15T14:29:22.630Z,76.55
2018-02-15T14:32:45.929Z,77.32
2018-02-15T14:36:10.008Z,77.04
2018-02-15T14:39:33.302Z,77.86
2018-02-15T14:42:57.412Z,76.86
2018-02-15T14:46:20.775Z,77.67
2018-02-15T14:49:44.028Z,77.63
2018-02-15T14:53:07.333Z,77.88
2018-02-15T14:56:31.461Z,78.18
2018-02-15T14:59:54.779Z,77.12
2018-02-15T15:03:19.148Z,77.43
2018-02-15T15:06:43.186Z,77.96
2018-02-15T15:10:07.275Z,78.61
2018-02-15T15:13:31.516Z,78.47
2018-02-15T15:16:55.680Z,79.18
2018-02-15T15:20:19.777Z,79.62
2018-02-15T15:23:43.143Z,80.02
2018-02-15T15:27:07.319Z,79.08
2018-02-15T15:30:30.661Z,78.62
2018-02-15T15:33:53.996Z,79.83
2018-02-15T15:37:17.300Z,78.86
2018-02-15T15:40:41.416Z,79.14
2018-02-15T15:44:05.527Z,78.55
2018-02-15T15:47:29.636Z,80.57
2018-02-15T15:50:53.067Z,80.33
2018-02-15T15:54:17.235Z,80.62
2018-02-15T15:57:40.772Z,81.82
2018-02-15T16:01:04.137Z,80.77
2018-02-15T16:04:27.435Z,82.61
2018-02-15T16:07:51.483Z,81.58
2018-02-15T16:11:14.761Z,81.29
2018-02-15T16:14:38.139Z,81.44
2018-02-15T16:18:01.399Z,82.75
2018-02-15T16:21:24.690Z,83.16
2018-02-15T16:24:49.849Z,81.83
2018-02-15T16:28:13.974Z,81.61
2018-02-15T16:31:37.290Z,81.36
2018-02-15T16:35:00.615Z,81.98
2018-02-15T16:38:23.935Z,82.47
2018-02-15T16:41:47.239Z,82.95
2018-02-15T16:45:10.526Z,82.03
2018-02-15T16:48:34.630Z,81.81
2018-02-15T16:51:58.068Z,81.82
2018-02-15T16:55:21.518Z,82.87
2018-02-15T16:58:45.641Z,81.96
2018-02-15T17:02:09.740Z,81.88
2018-02-15T17:05:33.865Z,82.43
2018-02-15T17:08:57.159Z,81.84
2018-02-15T17:12:20.427Z,81.42
2018-02-15T17:15:43.750Z,81.56
2018-02-15T17:19:07.099Z,81.72
2018-02-15T17:22:31.150Z,83.58
2018-02-15T17:25:54.434Z,82.20
2018-02-15T17:29:17.762Z,82.54
2018-02-15T17:32:41.058Z,82.77
2018-02-15T17:36:04.340Z,83.00
2018-02-15T17:39:27.618Z,83.47
2018-02-15T17:42:50.915Z,83.31
2018-02-15T17:46:16.776Z,83.34
2018-02-15T17:49:49.866Z,84.01
2018-02-15T17:53:13.921Z,86.36
2018-02-15T17:56:37.260Z,84.53
2018-02-15T18:00:00.590Z,84.42
2018-02-15T18:03:24.722Z,84.11
2018-02-15T18:06:48.093Z,83.98
2018-02-15T18:10:11.354Z,83.66
2018-02-15T18:13:34.684Z,84.29
2018-02-15T18:16:57.990Z,84.11
2018-02-15T18:20:21.270Z,84.49
2018-02-15T18:23:45.516Z,83.75
2018-02-15T18:27:09.712Z,83.58
2018-02-15T18:30:33.766Z,83.01
2018-02-15T18:33:57.159Z,83.58
2018-02-15T18:37:21.376Z,83.06
2018-02-15T18:40:44.866Z,83.41
2018-02-15T18:44:08.167Z,82.21
2018-02-15T18:47:32.530Z,83.15
2018-02-15T18:50:55.846Z,83.14
2018-02-15T18:54:19.227Z,83.48
2018-02-15T18:57:44.824Z,83.32
2018-02-15T19:01:08.099Z,83.83
2018-02-15T19:04:32.298Z,84.07
2018-02-15T19:07:55.610Z,82.81
2018-02-15T19:11:19.664Z,83.19
2018-02-15T19:14:43.733Z,83.52
2018-02-15T19:18:07.046Z,83.74
2018-02-15T19:21:30.316Z,83.94
2018-02-15T19:24:53.625Z,84.24
2018-02-15T19:28:16.896Z,83.49
2018-02-15T19:31:40.286Z,83.28
2018-02-15T19:35:03.590Z,83.74
2018-02-15T19:38:26.870Z,83.25
2018-02-15T19:41:50.191Z,83.31
2018-02-15T19:45:13.546Z,84.03
2018-02-15T19:48:36.827Z,83.87
2018-02-15T19:52:00.133Z,83.23
2018-02-15T19:55:23.415Z,83.48
2018-02-15T19:58:47.491Z,84.13
2018-02-15T20:02:10.763Z,83.88
2018-02-15T20:05:34.191Z,83.96
2018-02-15T20:08:58.255Z,83.92
2018-02-15T20:12:21.618Z,84.40
2018-02-15T20:15:47.688Z,84.06
2018-02-15T20:19:11.190Z,83.61
2018-02-15T20:22:35.259Z,83.67
2018-02-15T20:26:04.832Z,83.65
2018-02-15T20:29:28.948Z,84.12
2018-02-15T20:32:52.286Z,84.36
2018-02-15T20:36:16.452Z,84.06
2018-02-15T20:39:45.248Z,84.33
2018-02-15T20:43:08.700Z,83.61
2018-02-15T20:46:32.012Z,83.98
2018-02-15T20:50:01.918Z,83.87
2018-02-15T20:53:30.794Z,83.99
2018-02-15T20:56:54.132Z,83.59
2018-02-15T21:00:18.269Z,84.14
2018-02-15T21:03:41.542Z,84.03
2018-02-15T21:07:04.832Z,83.78
2018-02-15T21:10:28.902Z,83.71
2018-02-15T21:13:53.034Z,84.20
2018-02-15T21:17:16.369Z,83.95
2018-02-15T21:20:40.496Z,84.12
2018-02-15T21:24:03.775Z,83.98
2018-02-15T21:27:27.832Z,84.79
2018-02-15T21:30:51.182Z,83.81
2018-02-15T21:34:14.462Z,83.98
2018-02-15T21:37:37.901Z,84.15
2018-02-15T21:41:01.240Z,84.40
2018-02-15T21:44:24.698Z,83.94
2018-02-15T21:47:47.986Z,83.89
2018-02-15T21:51:12.026Z,84.45
2018-02-15T21:54:35.308Z,84.10
2018-02-15T21:57:58.584Z,85.11
2018-02-15T22:01:21.868Z,84.94
2018-02-15T22:04:45.931Z,85.36
2018-02-15T22:08:09.232Z,85.66
2018-02-15T22:11:33.285Z,84.84
2018-02-15T22:14:56.579Z,84.91
2018-02-15T22:18:20.700Z,85.29
2018-02-15T22:21:43.970Z,85.50
2018-02-15T22:25:08.142Z,85.52
2018-02-15T22:28:31.408Z,85.21
2018-02-15T22:31:54.676Z,85.42
2018-02-15T22:35:17.937Z,85.65
2018-02-15T22:38:41.252Z,85.91
2018-02-15T22:42:05.379Z,85.84
2018-02-15T22:45:29.506Z,85.03
2018-02-15T22:48:52.825Z,85.06
2018-02-15T22:52:16.183Z,85.40
2018-02-15T22:55:39.453Z,84.98
2018-02-15T22:59:03.051Z,85.97
2018-02-15T23:02:27.132Z,86.78
2018-02-15T23:05:51.196Z,85.63
2018-02-15T23:09:14.585Z,85.64
2018-02-15T23:12:37.902Z,85.47
2018-02-15T23:16:01.176Z,85.82
2018-02-15T23:19:24.496Z,85.98
2018-02-15T23:22:48.566Z,85.86
2018-02-15T23:26:11.842Z,86.50
2018-02-15T23:29:35.222Z,85.98
2018-02-15T23:32:59.262Z,85.64
2018-02-15T23:36:23.321Z,85.70
2018-02-15T23:39:46.602Z,85.87
2018-02-15T23:43:09.926Z,85.21
2018-02-15T23:46:33.203Z,85.47
2018-02-15T23:49:57.274Z,85.45
2018-02-15T23:53:20.544Z,84.78
2018-02-15T23:56:43.879Z,85.17
